sensor_id;sensor_type;location;lat;lon;timestamp;temperature;humidity
40758;DHT22;26462;47.384;19.218;2023-03-03T00:00:58;3.20;99.90
40758;DHT22;26462;47.384;19.218;2023-03-03T00:03:25;3.20;99.90
40758;DHT22;26462;47.384;19.218;2023-03-03T00:05:53;3.10;99.90
40758;DHT22;26462;47.384;19.218;2023-03-03T00:08:21;3.10;99.90
40758;DHT22;26462;47.384;19.218;2023-03-03T00:10:49;3.10;99.90
40758;DHT22;26462;47.384;19.218;2023-03-03T00:13:17;3.10;99.90
40758;DHT22;26462;47.384;19.218;2023-03-03T00:15:45;3.10;99.90
40758;DHT22;26462;47.384;19.218;2023-03-03T00:18:34;3.10;99.90
40758;DHT22;26462;47.384;19.218;2023-03-03T00:21:03;3.00;99.90
40758;DHT22;26462;47.384;19.218;2023-03-03T00:23:40;3.00;99.90
40758;DHT22;26462;47.384;19.218;2023-03-03T00:26:17;3.00;99.90
40758;DHT22;26462;47.384;19.218;2023-03-03T00:28:51;1.90;99.90
40758;DHT22;26462;47.384;19.218;2023-03-03T00:31:28;2.90;99.90
40758;DHT22;26462;47.384;19.218;2023-03-03T00:34:15;2.90;99.90
40758;DHT22;26462;47.384;19.218;2023-03-03T00:36:48;2.90;99.90
40758;DHT22;26462;47.384;19.218;2023-03-03T00:41:48;2.90;99.90
40758;DHT22;26462;47.384;19.218;2023-03-03T00:47:25;2.90;99.90
40758;DHT22;26462;47.384;19.218;2023-03-03T00:52:35;2.80;99.90
40758;DHT22;26462;47.384;19.218;2023-03-03T00:55:04;2.90;99.90
40758;DHT22;26462;47.384;19.218;2023-03-03T00:57:32;2.80;99.90
40758;DHT22;26462;47.384;19.218;2023-03-03T01:00:00;2.80;99.90
40758;DHT22;26462;47.384;19.218;2023-03-03T01:02:29;2.80;99.90
40758;DHT22;26462;47.384;19.218;2023-03-03T01:04:57;2.80;99.90
40758;DHT22;26462;47.384;19.218;2023-03-03T01:07:24;2.80;99.90
40758;DHT22;26462;47.384;19.218;2023-03-03T01:09:51;2.80;99.90
40758;DHT22;26462;47.384;19.218;2023-03-03T01:12:19;2.80;99.90
40758;DHT22;26462;47.384;19.218;2023-03-03T01:14:46;2.80;99.90
40758;DHT22;26462;47.384;19.218;2023-03-03T01:17:15;2.80;99.90
40758;DHT22;26462;47.384;19.218;2023-03-03T01:19:43;2.80;99.90
40758;DHT22;26462;47.384;19.218;2023-03-03T01:22:10;2.80;99.90
40758;DHT22;26462;47.384;19.218;2023-03-03T01:24:37;2.80;99.90
40758;DHT22;26462;47.384;19.218;2023-03-03T01:27:04;2.80;99.90
40758;DHT22;26462;47.384;19.218;2023-03-03T01:29:31;2.90;99.90
40758;DHT22;26462;47.384;19.218;2023-03-03T01:31:59;2.90;99.90
40758;DHT22;26462;47.384;19.218;2023-03-03T01:34:26;2.90;99.90
40758;DHT22;26462;47.384;19.218;2023-03-03T01:36:54;2.90;99.90
40758;DHT22;26462;47.384;19.218;2023-03-03T01:39:21;2.90;99.90
40758;DHT22;26462;47.384;19.218;2023-03-03T01:41:49;2.90;99.90
40758;DHT22;26462;47.384;19.218;2023-03-03T01:44:18;2.90;99.90
40758;DHT22;26462;47.384;19.218;2023-03-03T01:47:05;2.90;99.90
40758;DHT22;26462;47.384;19.218;2023-03-03T01:52:32;2.90;99.90
40758;DHT22;26462;47.384;19.218;2023-03-03T01:55:05;3.00;99.90
40758;DHT22;26462;47.384;19.218;2023-03-03T01:57:39;3.00;99.90
40758;DHT22;26462;47.384;19.218;2023-03-03T02:00:12;3.00;99.90
40758;DHT22;26462;47.384;19.218;2023-03-03T02:02:40;3.00;99.90
40758;DHT22;26462;47.384;19.218;2023-03-03T02:05:10;3.00;99.90
40758;DHT22;26462;47.384;19.218;2023-03-03T02:07:38;3.00;99.90
40758;DHT22;26462;47.384;19.218;2023-03-03T02:12:49;3.00;99.90
40758;DHT22;26462;47.384;19.218;2023-03-03T02:15:31;3.00;99.90
40758;DHT22;26462;47.384;19.218;2023-03-03T02:18:04;3.10;99.90
40758;DHT22;26462;47.384;19.218;2023-03-03T02:26:35;3.10;99.90
40758;DHT22;26462;47.384;19.218;2023-03-03T02:29:06;3.10;99.90
40758;DHT22;26462;47.384;19.218;2023-03-03T02:31:33;3.10;99.90
40758;DHT22;26462;47.384;19.218;2023-03-03T02:34:01;3.10;99.90
40758;DHT22;26462;47.384;19.218;2023-03-03T02:36:35;3.10;99.90
40758;DHT22;26462;47.384;19.218;2023-03-03T02:39:10;3.10;99.90
40758;DHT22;26462;47.384;19.218;2023-03-03T02:44:33;3.20;99.90
40758;DHT22;26462;47.384;19.218;2023-03-03T02:47:04;3.20;99.90
40758;DHT22;26462;47.384;19.218;2023-03-03T02:49:34;3.20;99.90
40758;DHT22;26462;47.384;19.218;2023-03-03T02:52:06;3.20;99.90
40758;DHT22;26462;47.384;19.218;2023-03-03T02:54:38;3.30;99.90
40758;DHT22;26462;47.384;19.218;2023-03-03T02:57:06;3.20;99.90
40758;DHT22;26462;47.384;19.218;2023-03-03T02:59:35;3.20;99.90
40758;DHT22;26462;47.384;19.218;2023-03-03T03:02:09;3.30;99.90
40758;DHT22;26462;47.384;19.218;2023-03-03T03:04:36;3.30;99.90
40758;DHT22;26462;47.384;19.218;2023-03-03T03:07:05;3.30;99.90
40758;DHT22;26462;47.384;19.218;2023-03-03T03:09:35;3.30;99.90
40758;DHT22;26462;47.384;19.218;2023-03-03T03:12:03;3.40;99.90
40758;DHT22;26462;47.384;19.218;2023-03-03T03:14:35;3.30;99.90
40758;DHT22;26462;47.384;19.218;2023-03-03T03:17:05;3.40;99.90
40758;DHT22;26462;47.384;19.218;2023-03-03T03:19:32;3.40;99.90
40758;DHT22;26462;47.384;19.218;2023-03-03T03:22:03;3.40;99.90
40758;DHT22;26462;47.384;19.218;2023-03-03T03:24:33;3.40;99.90
40758;DHT22;26462;47.384;19.218;2023-03-03T03:27:04;3.40;99.90
40758;DHT22;26462;47.384;19.218;2023-03-03T03:29:33;3.40;99.90
40758;DHT22;26462;47.384;19.218;2023-03-03T03:32:01;3.50;99.90
40758;DHT22;26462;47.384;19.218;2023-03-03T03:34:28;3.40;99.90
40758;DHT22;26462;47.384;19.218;2023-03-03T03:36:57;3.50;99.90
40758;DHT22;26462;47.384;19.218;2023-03-03T03:39:27;3.50;99.90
40758;DHT22;26462;47.384;19.218;2023-03-03T03:41:55;3.50;99.90
40758;DHT22;26462;47.384;19.218;2023-03-03T03:44:22;3.50;99.90
40758;DHT22;26462;47.384;19.218;2023-03-03T03:46:52;3.50;99.90
40758;DHT22;26462;47.384;19.218;2023-03-03T03:49:19;3.50;99.90
40758;DHT22;26462;47.384;19.218;2023-03-03T03:51:49;3.50;99.90
40758;DHT22;26462;47.384;19.218;2023-03-03T03:54:19;3.50;99.90
40758;DHT22;26462;47.384;19.218;2023-03-03T03:56:47;3.60;99.90
40758;DHT22;26462;47.384;19.218;2023-03-03T03:59:15;3.50;99.90
40758;DHT22;26462;47.384;19.218;2023-03-03T04:01:42;3.50;99.90
40758;DHT22;26462;47.384;19.218;2023-03-03T04:04:09;3.50;99.90
40758;DHT22;26462;47.384;19.218;2023-03-03T04:06:37;3.50;99.90
40758;DHT22;26462;47.384;19.218;2023-03-03T04:09:05;3.60;99.90
40758;DHT22;26462;47.384;19.218;2023-03-03T04:11:33;3.60;99.90
40758;DHT22;26462;47.384;19.218;2023-03-03T04:14:03;3.60;99.90
40758;DHT22;26462;47.384;19.218;2023-03-03T04:16:31;3.60;99.90
40758;DHT22;26462;47.384;19.218;2023-03-03T04:18:58;3.60;99.90
40758;DHT22;26462;47.384;19.218;2023-03-03T04:21:26;3.60;99.90
40758;DHT22;26462;47.384;19.218;2023-03-03T04:23:56;3.60;99.90
40758;DHT22;26462;47.384;19.218;2023-03-03T04:26:25;3.60;99.90
40758;DHT22;26462;47.384;19.218;2023-03-03T04:28:53;3.60;99.90
40758;DHT22;26462;47.384;19.218;2023-03-03T04:31:22;3.60;99.90
40758;DHT22;26462;47.384;19.218;2023-03-03T04:33:51;3.60;99.90
40758;DHT22;26462;47.384;19.218;2023-03-03T04:36:21;3.60;99.90
40758;DHT22;26462;47.384;19.218;2023-03-03T04:38:49;3.60;99.90
40758;DHT22;26462;47.384;19.218;2023-03-03T04:41:17;3.70;99.90
40758;DHT22;26462;47.384;19.218;2023-03-03T04:43:45;3.70;99.90
40758;DHT22;26462;47.384;19.218;2023-03-03T04:46:12;3.70;99.90
40758;DHT22;26462;47.384;19.218;2023-03-03T04:48:40;3.70;99.90
40758;DHT22;26462;47.384;19.218;2023-03-03T04:51:09;3.70;99.90
40758;DHT22;26462;47.384;19.218;2023-03-03T04:53:37;3.70;99.90
40758;DHT22;26462;47.384;19.218;2023-03-03T04:56:06;3.70;99.90
40758;DHT22;26462;47.384;19.218;2023-03-03T04:58:34;3.70;99.90
40758;DHT22;26462;47.384;19.218;2023-03-03T05:01:02;3.80;99.90
40758;DHT22;26462;47.384;19.218;2023-03-03T05:03:31;3.80;99.90
40758;DHT22;26462;47.384;19.218;2023-03-03T05:05:58;3.70;99.90
40758;DHT22;26462;47.384;19.218;2023-03-03T05:08:26;3.80;99.90
40758;DHT22;26462;47.384;19.218;2023-03-03T05:10:53;3.80;99.90
40758;DHT22;26462;47.384;19.218;2023-03-03T05:13:21;3.80;99.90
40758;DHT22;26462;47.384;19.218;2023-03-03T05:15:54;3.80;99.90
40758;DHT22;26462;47.384;19.218;2023-03-03T05:18:22;3.80;99.90
40758;DHT22;26462;47.384;19.218;2023-03-03T05:20:50;3.80;99.90
40758;DHT22;26462;47.384;19.218;2023-03-03T05:23:18;3.80;99.90
40758;DHT22;26462;47.384;19.218;2023-03-03T05:25:49;3.80;99.90
40758;DHT22;26462;47.384;19.218;2023-03-03T05:28:18;3.80;99.90
40758;DHT22;26462;47.384;19.218;2023-03-03T05:30:45;3.80;99.90
40758;DHT22;26462;47.384;19.218;2023-03-03T05:33:14;3.80;99.90
40758;DHT22;26462;47.384;19.218;2023-03-03T05:35:42;3.80;99.90
40758;DHT22;26462;47.384;19.218;2023-03-03T05:38:10;3.90;99.90
40758;DHT22;26462;47.384;19.218;2023-03-03T05:40:39;3.80;99.90
40758;DHT22;26462;47.384;19.218;2023-03-03T05:43:06;3.00;99.90
40758;DHT22;26462;47.384;19.218;2023-03-03T05:45:33;3.90;99.90
40758;DHT22;26462;47.384;19.218;2023-03-03T05:48:01;3.80;99.90
40758;DHT22;26462;47.384;19.218;2023-03-03T05:50:29;3.90;99.90
40758;DHT22;26462;47.384;19.218;2023-03-03T05:52:56;3.90;99.90
40758;DHT22;26462;47.384;19.218;2023-03-03T05:55:24;3.90;99.90
40758;DHT22;26462;47.384;19.218;2023-03-03T05:57:51;4.00;99.90
40758;DHT22;26462;47.384;19.218;2023-03-03T06:00:18;4.00;99.90
40758;DHT22;26462;47.384;19.218;2023-03-03T06:02:46;4.00;99.90
40758;DHT22;26462;47.384;19.218;2023-03-03T06:05:13;4.10;99.90
40758;DHT22;26462;47.384;19.218;2023-03-03T06:07:40;4.10;99.90
40758;DHT22;26462;47.384;19.218;2023-03-03T06:10:08;4.10;99.90
40758;DHT22;26462;47.384;19.218;2023-03-03T06:12:38;4.10;99.90
40758;DHT22;26462;47.384;19.218;2023-03-03T06:15:08;4.10;99.90
40758;DHT22;26462;47.384;19.218;2023-03-03T06:17:36;4.10;99.90
40758;DHT22;26462;47.384;19.218;2023-03-03T06:20:03;3.50;99.90
40758;DHT22;26462;47.384;19.218;2023-03-03T06:22:31;4.20;99.90
40758;DHT22;26462;47.384;19.218;2023-03-03T06:24:59;4.20;99.90
40758;DHT22;26462;47.384;19.218;2023-03-03T06:27:26;4.20;99.90
40758;DHT22;26462;47.384;19.218;2023-03-03T06:29:53;3.30;99.90
40758;DHT22;26462;47.384;19.218;2023-03-03T06:32:20;4.20;99.90
40758;DHT22;26462;47.384;19.218;2023-03-03T06:34:49;4.50;99.90
40758;DHT22;26462;47.384;19.218;2023-03-03T06:37:16;4.30;99.90
40758;DHT22;26462;47.384;19.218;2023-03-03T06:39:43;4.30;99.90
40758;DHT22;26462;47.384;19.218;2023-03-03T06:42:11;4.40;99.90
40758;DHT22;26462;47.384;19.218;2023-03-03T06:44:38;4.40;99.90
40758;DHT22;26462;47.384;19.218;2023-03-03T06:47:05;4.40;99.90
40758;DHT22;26462;47.384;19.218;2023-03-03T06:49:32;4.40;99.90
40758;DHT22;26462;47.384;19.218;2023-03-03T06:52:04;4.50;99.90
40758;DHT22;26462;47.384;19.218;2023-03-03T06:54:36;4.50;99.90
40758;DHT22;26462;47.384;19.218;2023-03-03T06:57:19;4.50;99.90
40758;DHT22;26462;47.384;19.218;2023-03-03T06:59:52;4.50;99.90
40758;DHT22;26462;47.384;19.218;2023-03-03T07:02:21;4.60;99.90
40758;DHT22;26462;47.384;19.218;2023-03-03T07:04:48;4.60;99.90
40758;DHT22;26462;47.384;19.218;2023-03-03T07:07:22;4.60;99.90
40758;DHT22;26462;47.384;19.218;2023-03-03T07:09:55;4.70;99.90
40758;DHT22;26462;47.384;19.218;2023-03-03T07:12:25;4.80;99.90
40758;DHT22;26462;47.384;19.218;2023-03-03T07:15:11;4.80;99.90
40758;DHT22;26462;47.384;19.218;2023-03-03T07:17:43;4.90;99.90
40758;DHT22;26462;47.384;19.218;2023-03-03T07:20:22;4.90;99.90
40758;DHT22;26462;47.384;19.218;2023-03-03T07:22:50;5.00;99.90
40758;DHT22;26462;47.384;19.218;2023-03-03T07:25:33;5.00;99.90
40758;DHT22;26462;47.384;19.218;2023-03-03T07:28:23;5.10;99.90
40758;DHT22;26462;47.384;19.218;2023-03-03T07:30:56;5.20;99.90
40758;DHT22;26462;47.384;19.218;2023-03-03T07:33:41;5.20;99.90
40758;DHT22;26462;47.384;19.218;2023-03-03T07:36:39;5.20;99.90
40758;DHT22;26462;47.384;19.218;2023-03-03T07:39:35;5.70;99.90
40758;DHT22;26462;47.384;19.218;2023-03-03T07:42:42;5.30;99.90
40758;DHT22;26462;47.384;19.218;2023-03-03T07:45:31;5.30;99.90
40758;DHT22;26462;47.384;19.218;2023-03-03T07:48:29;5.40;99.90
40758;DHT22;26462;47.384;19.218;2023-03-03T07:51:03;5.40;99.90
40758;DHT22;26462;47.384;19.218;2023-03-03T07:53:33;5.30;99.90
40758;DHT22;26462;47.384;19.218;2023-03-03T07:56:14;5.40;99.90
40758;DHT22;26462;47.384;19.218;2023-03-03T07:58:42;5.40;99.90
40758;DHT22;26462;47.384;19.218;2023-03-03T08:03:54;5.40;99.90
40758;DHT22;26462;47.384;19.218;2023-03-03T08:08:49;5.10;99.90
40758;DHT22;26462;47.384;19.218;2023-03-03T08:11:17;5.60;99.90
40758;DHT22;26462;47.384;19.218;2023-03-03T08:13:45;5.60;99.90
40758;DHT22;26462;47.384;19.218;2023-03-03T08:18:46;5.80;99.90
40758;DHT22;26462;47.384;19.218;2023-03-03T08:21:18;5.80;99.90
40758;DHT22;26462;47.384;19.218;2023-03-03T08:23:46;5.70;99.90
40758;DHT22;26462;47.384;19.218;2023-03-03T08:26:21;5.80;99.90
40758;DHT22;26462;47.384;19.218;2023-03-03T08:28:49;4.90;99.90
40758;DHT22;26462;47.384;19.218;2023-03-03T08:31:17;6.00;99.90
40758;DHT22;26462;47.384;19.218;2023-03-03T08:34:04;6.10;99.90
40758;DHT22;26462;47.384;19.218;2023-03-03T08:36:31;6.20;99.90
40758;DHT22;26462;47.384;19.218;2023-03-03T08:39:01;6.30;99.90
40758;DHT22;26462;47.384;19.218;2023-03-03T08:41:29;6.40;99.90
40758;DHT22;26462;47.384;19.218;2023-03-03T08:43:56;6.50;99.90
40758;DHT22;26462;47.384;19.218;2023-03-03T08:46:23;6.60;99.90
40758;DHT22;26462;47.384;19.218;2023-03-03T08:48:51;6.70;99.90
40758;DHT22;26462;47.384;19.218;2023-03-03T08:51:19;6.80;99.90
40758;DHT22;26462;47.384;19.218;2023-03-03T08:53:46;6.80;99.90
40758;DHT22;26462;47.384;19.218;2023-03-03T08:56:13;6.90;99.90
40758;DHT22;26462;47.384;19.218;2023-03-03T08:58:41;7.00;99.90
40758;DHT22;26462;47.384;19.218;2023-03-03T09:01:27;7.00;99.90
40758;DHT22;26462;47.384;19.218;2023-03-03T09:03:55;6.90;99.90
40758;DHT22;26462;47.384;19.218;2023-03-03T09:06:22;7.00;99.90
40758;DHT22;26462;47.384;19.218;2023-03-03T09:08:49;7.10;99.90
40758;DHT22;26462;47.384;19.218;2023-03-03T09:11:25;6.80;99.90
40758;DHT22;26462;47.384;19.218;2023-03-03T09:14:01;7.10;99.90
40758;DHT22;26462;47.384;19.218;2023-03-03T09:16:40;7.10;99.90
40758;DHT22;26462;47.384;19.218;2023-03-03T09:19:20;7.30;99.90
40758;DHT22;26462;47.384;19.218;2023-03-03T09:21:51;7.30;99.90
40758;DHT22;26462;47.384;19.218;2023-03-03T09:24:27;7.50;99.90
40758;DHT22;26462;47.384;19.218;2023-03-03T09:26:56;7.50;99.90
40758;DHT22;26462;47.384;19.218;2023-03-03T09:29:27;7.50;99.90
40758;DHT22;26462;47.384;19.218;2023-03-03T09:34:51;7.70;99.90
40758;DHT22;26462;47.384;19.218;2023-03-03T09:37:24;7.80;99.90
40758;DHT22;26462;47.384;19.218;2023-03-03T09:39:56;7.80;99.90
40758;DHT22;26462;47.384;19.218;2023-03-03T09:48:06;6.80;99.90
40758;DHT22;26462;47.384;19.218;2023-03-03T09:50:39;7.90;99.90
40758;DHT22;26462;47.384;19.218;2023-03-03T09:58:59;8.20;99.90
40758;DHT22;26462;47.384;19.218;2023-03-03T10:04:38;8.40;99.90
40758;DHT22;26462;47.384;19.218;2023-03-03T10:15:13;8.60;99.90
40758;DHT22;26462;47.384;19.218;2023-03-03T10:20:39;9.00;99.90
40758;DHT22;26462;47.384;19.218;2023-03-03T10:23:24;8.90;99.90
40758;DHT22;26462;47.384;19.218;2023-03-03T10:28:57;8.90;99.90
40758;DHT22;26462;47.384;19.218;2023-03-03T10:56:48;8.80;99.70
40758;DHT22;26462;47.384;19.218;2023-03-03T10:59:52;8.80;99.90
40758;DHT22;26462;47.384;19.218;2023-03-03T11:10:50;10.00;98.00
40758;DHT22;26462;47.384;19.218;2023-03-03T11:26:54;10.30;95.00
40758;DHT22;26462;47.384;19.218;2023-03-03T11:29:58;10.40;94.20
40758;DHT22;26462;47.384;19.218;2023-03-03T11:35:22;10.50;93.10
40758;DHT22;26462;47.384;19.218;2023-03-03T11:43:53;10.70;93.00
40758;DHT22;26462;47.384;19.218;2023-03-03T11:46:30;10.70;93.00
40758;DHT22;26462;47.384;19.218;2023-03-03T11:52:10;10.80;92.30
40758;DHT22;26462;47.384;19.218;2023-03-03T11:57:40;11.10;91.90
40758;DHT22;26462;47.384;19.218;2023-03-03T12:00:36;11.00;91.80
40758;DHT22;26462;47.384;19.218;2023-03-03T12:03:30;11.10;91.40
40758;DHT22;26462;47.384;19.218;2023-03-03T12:06:16;11.20;91.40
40758;DHT22;26462;47.384;19.218;2023-03-03T12:11:33;11.10;91.40
40758;DHT22;26462;47.384;19.218;2023-03-03T12:25:44;10.80;91.70
40758;DHT22;26462;47.384;19.218;2023-03-03T12:28:27;11.10;91.70
40758;DHT22;26462;47.384;19.218;2023-03-03T12:48:08;11.20;90.60
40758;DHT22;26462;47.384;19.218;2023-03-03T12:59:48;11.50;90.10
40758;DHT22;26462;47.384;19.218;2023-03-03T13:08:24;11.50;89.30
40758;DHT22;26462;47.384;19.218;2023-03-03T13:25:00;11.20;89.70
40758;DHT22;26462;47.384;19.218;2023-03-03T13:27:40;11.30;89.10
40758;DHT22;26462;47.384;19.218;2023-03-03T13:30:34;11.10;88.70
40758;DHT22;26462;47.384;19.218;2023-03-03T13:33:22;11.40;88.60
40758;DHT22;26462;47.384;19.218;2023-03-03T13:36:08;11.60;88.60
40758;DHT22;26462;47.384;19.218;2023-03-03T13:38:40;11.70;89.20
40758;DHT22;26462;47.384;19.218;2023-03-03T13:46:55;11.70;88.60
40758;DHT22;26462;47.384;19.218;2023-03-03T13:52:36;11.70;88.20
40758;DHT22;26462;47.384;19.218;2023-03-03T13:55:13;11.60;89.10
40758;DHT22;26462;47.384;19.218;2023-03-03T14:06:22;11.70;89.30
40758;DHT22;26462;47.384;19.218;2023-03-03T14:11:49;11.50;89.60
40758;DHT22;26462;47.384;19.218;2023-03-03T14:15:05;11.50;89.70
40758;DHT22;26462;47.384;19.218;2023-03-03T14:17:46;11.40;90.00
40758;DHT22;26462;47.384;19.218;2023-03-03T14:20:29;11.30;89.40
40758;DHT22;26462;47.384;19.218;2023-03-03T14:23:06;11.30;90.00
40758;DHT22;26462;47.384;19.218;2023-03-03T14:28:43;11.20;90.20
40758;DHT22;26462;47.384;19.218;2023-03-03T14:31:23;11.10;90.40
40758;DHT22;26462;47.384;19.218;2023-03-03T14:36:38;11.10;90.30
40758;DHT22;26462;47.384;19.218;2023-03-03T14:39:32;10.30;90.30
40758;DHT22;26462;47.384;19.218;2023-03-03T14:42:30;11.00;90.50
40758;DHT22;26462;47.384;19.218;2023-03-03T14:45:00;10.90;90.60
40758;DHT22;26462;47.384;19.218;2023-03-03T14:47:55;10.80;90.60
40758;DHT22;26462;47.384;19.218;2023-03-03T14:53:14;10.80;90.80
40758;DHT22;26462;47.384;19.218;2023-03-03T14:55:48;10.70;90.90
40758;DHT22;26462;47.384;19.218;2023-03-03T14:58:31;10.70;91.00
40758;DHT22;26462;47.384;19.218;2023-03-03T15:01:13;10.60;91.20
40758;DHT22;26462;47.384;19.218;2023-03-03T15:04:00;10.60;91.30
40758;DHT22;26462;47.384;19.218;2023-03-03T15:09:26;10.60;91.20
40758;DHT22;26462;47.384;19.218;2023-03-03T15:11:57;10.60;91.40
40758;DHT22;26462;47.384;19.218;2023-03-03T15:14:43;10.50;91.50
40758;DHT22;26462;47.384;19.218;2023-03-03T15:22:40;10.40;91.50
40758;DHT22;26462;47.384;19.218;2023-03-03T15:30:54;10.40;92.00
40758;DHT22;26462;47.384;19.218;2023-03-03T15:33:52;10.60;92.30
40758;DHT22;26462;47.384;19.218;2023-03-03T15:39:45;10.20;92.60
40758;DHT22;26462;47.384;19.218;2023-03-03T15:42:21;10.20;92.70
40758;DHT22;26462;47.384;19.218;2023-03-03T15:50:54;10.00;92.70
40758;DHT22;26462;47.384;19.218;2023-03-03T15:53:32;10.00;92.90
40758;DHT22;26462;47.384;19.218;2023-03-03T15:56:08;9.90;93.20
40758;DHT22;26462;47.384;19.218;2023-03-03T15:59:24;9.90;93.40
40758;DHT22;26462;47.384;19.218;2023-03-03T16:02:17;9.80;93.70
40758;DHT22;26462;47.384;19.218;2023-03-03T16:14:09;9.70;94.60
40758;DHT22;26462;47.384;19.218;2023-03-03T16:16:50;9.60;95.00
40758;DHT22;26462;47.384;19.218;2023-03-03T16:19:37;9.60;95.10
40758;DHT22;26462;47.384;19.218;2023-03-03T16:28:18;9.40;95.50
40758;DHT22;26462;47.384;19.218;2023-03-03T16:31:09;9.30;95.80
40758;DHT22;26462;47.384;19.218;2023-03-03T16:34:00;9.30;96.00
40758;DHT22;26462;47.384;19.218;2023-03-03T16:42:28;9.10;96.80
40758;DHT22;26462;47.384;19.218;2023-03-03T16:45:22;9.00;96.90
40758;DHT22;26462;47.384;19.218;2023-03-03T17:19:45;8.20;98.80
40758;DHT22;26462;47.384;19.218;2023-03-03T17:22:19;8.10;99.00
40758;DHT22;26462;47.384;19.218;2023-03-03T17:25:13;8.00;99.20
40758;DHT22;26462;47.384;19.218;2023-03-03T17:33:00;7.80;99.90
40758;DHT22;26462;47.384;19.218;2023-03-03T17:38:37;7.70;99.90
40758;DHT22;26462;47.384;19.218;2023-03-03T17:41:20;7.70;99.90
40758;DHT22;26462;47.384;19.218;2023-03-03T17:46:45;7.60;99.90
40758;DHT22;26462;47.384;19.218;2023-03-03T17:49:31;7.50;99.90
40758;DHT22;26462;47.384;19.218;2023-03-03T17:55:05;7.40;99.90
40758;DHT22;26462;47.384;19.218;2023-03-03T18:09:37;7.20;99.90
40758;DHT22;26462;47.384;19.218;2023-03-03T18:23:38;7.00;99.90
40758;DHT22;26462;47.384;19.218;2023-03-03T18:39:37;6.60;99.90
40758;DHT22;26462;47.384;19.218;2023-03-03T18:44:44;6.50;99.90
40758;DHT22;26462;47.384;19.218;2023-03-03T18:47:14;6.50;99.90
40758;DHT22;26462;47.384;19.218;2023-03-03T18:49:59;6.40;99.90
40758;DHT22;26462;47.384;19.218;2023-03-03T18:52:33;6.30;99.90
40758;DHT22;26462;47.384;19.218;2023-03-03T18:57:38;6.20;99.90
40758;DHT22;26462;47.384;19.218;2023-03-03T19:00:22;6.10;99.90
40758;DHT22;26462;47.384;19.218;2023-03-03T19:02:55;6.10;99.90
40758;DHT22;26462;47.384;19.218;2023-03-03T19:05:25;6.10;99.90
40758;DHT22;26462;47.384;19.218;2023-03-03T19:08:01;6.00;99.90
40758;DHT22;26462;47.384;19.218;2023-03-03T19:10:58;5.20;99.90
40758;DHT22;26462;47.384;19.218;2023-03-03T19:16:09;6.00;99.90
40758;DHT22;26462;47.384;19.218;2023-03-03T19:23:56;5.80;99.90
40758;DHT22;26462;47.384;19.218;2023-03-03T19:29:08;5.80;99.90
40758;DHT22;26462;47.384;19.218;2023-03-03T19:31:49;5.80;99.90
40758;DHT22;26462;47.384;19.218;2023-03-03T19:34:22;4.80;99.90
40758;DHT22;26462;47.384;19.218;2023-03-03T19:45:24;5.50;99.90
40758;DHT22;26462;47.384;19.218;2023-03-03T19:56:47;5.40;99.90
40758;DHT22;26462;47.384;19.218;2023-03-03T20:02:23;5.20;99.90
40758;DHT22;26462;47.384;19.218;2023-03-03T20:05:07;5.20;99.90
40758;DHT22;26462;47.384;19.218;2023-03-03T20:10:45;5.10;99.90
40758;DHT22;26462;47.384;19.218;2023-03-03T20:18:37;5.00;99.90
40758;DHT22;26462;47.384;19.218;2023-03-03T20:30:00;4.80;99.90
40758;DHT22;26462;47.384;19.218;2023-03-03T20:41:13;4.70;99.90
40758;DHT22;26462;47.384;19.218;2023-03-03T20:46:51;4.60;99.90
40758;DHT22;26462;47.384;19.218;2023-03-03T20:49:57;4.60;99.90
40758;DHT22;26462;47.384;19.218;2023-03-03T21:03:49;4.40;99.90
40758;DHT22;26462;47.384;19.218;2023-03-03T21:06:19;4.40;99.90
40758;DHT22;26462;47.384;19.218;2023-03-03T21:08:52;4.40;99.90
40758;DHT22;26462;47.384;19.218;2023-03-03T21:14:13;4.30;99.90
40758;DHT22;26462;47.384;19.218;2023-03-03T21:16:43;4.30;99.90
40758;DHT22;26462;47.384;19.218;2023-03-03T21:19:28;4.20;99.90
40758;DHT22;26462;47.384;19.218;2023-03-03T21:21:58;4.20;99.90
40758;DHT22;26462;47.384;19.218;2023-03-03T21:24:56;4.20;99.90
40758;DHT22;26462;47.384;19.218;2023-03-03T21:27:34;4.10;99.90
40758;DHT22;26462;47.384;19.218;2023-03-03T21:30:10;4.10;99.90
40758;DHT22;26462;47.384;19.218;2023-03-03T21:32:43;4.00;99.90
40758;DHT22;26462;47.384;19.218;2023-03-03T21:35:19;4.00;99.90
40758;DHT22;26462;47.384;19.218;2023-03-03T21:37:56;3.90;99.90
40758;DHT22;26462;47.384;19.218;2023-03-03T21:40:26;3.90;99.90
40758;DHT22;26462;47.384;19.218;2023-03-03T21:42:58;3.90;99.90
40758;DHT22;26462;47.384;19.218;2023-03-03T21:45:26;3.90;99.90
40758;DHT22;26462;47.384;19.218;2023-03-03T21:47:54;3.80;99.90
40758;DHT22;26462;47.384;19.218;2023-03-03T21:50:22;3.80;99.90
40758;DHT22;26462;47.384;19.218;2023-03-03T21:52:50;3.70;99.90
40758;DHT22;26462;47.384;19.218;2023-03-03T21:55:17;3.70;99.90
40758;DHT22;26462;47.384;19.218;2023-03-03T21:57:44;3.70;99.90
40758;DHT22;26462;47.384;19.218;2023-03-03T22:00:12;3.70;99.90
40758;DHT22;26462;47.384;19.218;2023-03-03T22:02:39;3.60;99.90
40758;DHT22;26462;47.384;19.218;2023-03-03T22:05:06;3.60;99.90
40758;DHT22;26462;47.384;19.218;2023-03-03T22:07:33;3.60;99.90
40758;DHT22;26462;47.384;19.218;2023-03-03T22:10:00;3.60;99.90
40758;DHT22;26462;47.384;19.218;2023-03-03T22:12:29;3.60;99.90
40758;DHT22;26462;47.384;19.218;2023-03-03T22:14:56;3.60;99.90
40758;DHT22;26462;47.384;19.218;2023-03-03T22:17:23;3.50;99.90
40758;DHT22;26462;47.384;19.218;2023-03-03T22:19:51;3.50;99.90
40758;DHT22;26462;47.384;19.218;2023-03-03T22:22:18;3.50;99.90
40758;DHT22;26462;47.384;19.218;2023-03-03T22:24:46;3.40;99.90
40758;DHT22;26462;47.384;19.218;2023-03-03T22:27:13;3.40;99.90
40758;DHT22;26462;47.384;19.218;2023-03-03T22:29:40;3.30;99.90
40758;DHT22;26462;47.384;19.218;2023-03-03T22:32:07;3.30;99.90
40758;DHT22;26462;47.384;19.218;2023-03-03T22:34:34;3.20;99.90
40758;DHT22;26462;47.384;19.218;2023-03-03T22:37:02;3.20;99.90
40758;DHT22;26462;47.384;19.218;2023-03-03T22:39:29;3.10;99.90
40758;DHT22;26462;47.384;19.218;2023-03-03T22:41:56;3.20;99.90
40758;DHT22;26462;47.384;19.218;2023-03-03T22:44:23;3.20;99.90
40758;DHT22;26462;47.384;19.218;2023-03-03T22:46:50;3.10;99.90
40758;DHT22;26462;47.384;19.218;2023-03-03T22:49:17;3.10;99.90
40758;DHT22;26462;47.384;19.218;2023-03-03T22:51:44;3.10;99.90
40758;DHT22;26462;47.384;19.218;2023-03-03T22:54:11;3.10;99.90
40758;DHT22;26462;47.384;19.218;2023-03-03T22:56:38;3.00;99.90
40758;DHT22;26462;47.384;19.218;2023-03-03T22:59:05;3.00;99.90
40758;DHT22;26462;47.384;19.218;2023-03-03T23:01:33;3.00;99.90
40758;DHT22;26462;47.384;19.218;2023-03-03T23:04:00;2.90;99.90